Terminal Aerodrome Forecast
Issued by NWS

Current Version | Previous Version | Graphics & Text | Print | Product List | Glossary On
Versions: 1 2 3 4 5 6 7 8 9 10 11 12 13 14 15 16 17 18 19 20 21 22 23
000
FTUS41 KILN 250500
TAFLCK
TAF
KLCK 250533Z 2506/2606 VRB02KT P6SM SKC
      TEMPO 2509/2511 5SM BR
     FM251500 22006KT P6SM SCT040
     FM260000 18003KT P6SM FEW250=

USA.gov is the U.S. government's official web portal to all federal, state and local government web resources and services.